sensor_id;sensor_type;location;lat;lon;timestamp;P1;durP1;ratioP1;P2;durP2;ratioP2
46633;SDS011;32362;49.986;8.026;2022-11-14T00:05:15;12.73;;;6.57;;
46633;SDS011;32362;49.986;8.026;2022-11-14T00:32:15;11.38;;;6.28;;
46633;SDS011;32362;49.986;8.026;2022-11-14T00:59:14;13.50;;;7.63;;
46633;SDS011;32362;49.986;8.026;2022-11-14T01:26:13;22.07;;;7.90;;
46633;SDS011;32362;49.986;8.026;2022-11-14T01:53:12;13.27;;;7.10;;
46633;SDS011;32362;49.986;8.026;2022-11-14T02:47:10;29.45;;;12.57;;
46633;SDS011;32362;49.986;8.026;2022-11-14T03:14:10;38.23;;;15.83;;
46633;SDS011;32362;49.986;8.026;2022-11-14T03:41:09;40.07;;;16.77;;
46633;SDS011;32362;49.986;8.026;2022-11-14T04:08:07;36.93;;;13.87;;
46633;SDS011;32362;49.986;8.026;2022-11-14T04:35:07;37.33;;;15.60;;
46633;SDS011;32362;49.986;8.026;2022-11-14T05:02:06;27.38;;;13.38;;
46633;SDS011;32362;49.986;8.026;2022-11-14T05:29:05;47.77;;;19.97;;
46633;SDS011;32362;49.986;8.026;2022-11-14T05:56:09;51.05;;;18.20;;
46633;SDS011;32362;49.986;8.026;2022-11-14T06:23:10;36.80;;;17.35;;
46633;SDS011;32362;49.986;8.026;2022-11-14T06:50:09;51.93;;;20.73;;
46633;SDS011;32362;49.986;8.026;2022-11-14T07:17:08;47.67;;;19.83;;
46633;SDS011;32362;49.986;8.026;2022-11-14T07:44:07;31.80;;;14.67;;
46633;SDS011;32362;49.986;8.026;2022-11-14T08:11:06;35.97;;;16.30;;
46633;SDS011;32362;49.986;8.026;2022-11-14T08:38:06;34.20;;;17.07;;
46633;SDS011;32362;49.986;8.026;2022-11-14T09:05:05;37.83;;;18.10;;
46633;SDS011;32362;49.986;8.026;2022-11-14T09:32:04;37.00;;;18.35;;
46633;SDS011;32362;49.986;8.026;2022-11-14T09:59:04;38.30;;;16.23;;
46633;SDS011;32362;49.986;8.026;2022-11-14T11:20:46;31.15;;;15.90;;
46633;SDS011;32362;49.986;8.026;2022-11-14T11:48:00;24.58;;;13.57;;
46633;SDS011;32362;49.986;8.026;2022-11-14T12:42:12;29.25;;;13.82;;
46633;SDS011;32362;49.986;8.026;2022-11-14T14:31:01;16.92;;;9.35;;
46633;SDS011;32362;49.986;8.026;2022-11-14T15:25:20;14.20;;;8.45;;
46633;SDS011;32362;49.986;8.026;2022-11-14T15:52:20;13.47;;;8.50;;
46633;SDS011;32362;49.986;8.026;2022-11-14T16:19:23;16.38;;;9.98;;
46633;SDS011;32362;49.986;8.026;2022-11-14T16:46:22;17.30;;;10.33;;
46633;SDS011;32362;49.986;8.026;2022-11-14T17:13:22;17.65;;;9.82;;
46633;SDS011;32362;49.986;8.026;2022-11-14T17:40:23;17.38;;;11.15;;
46633;SDS011;32362;49.986;8.026;2022-11-14T18:07:22;19.67;;;11.53;;
46633;SDS011;32362;49.986;8.026;2022-11-14T18:34:21;20.83;;;11.90;;
46633;SDS011;32362;49.986;8.026;2022-11-14T19:01:21;19.30;;;9.97;;
46633;SDS011;32362;49.986;8.026;2022-11-14T19:28:26;16.80;;;10.27;;
46633;SDS011;32362;49.986;8.026;2022-11-14T19:55:29;17.15;;;9.77;;
46633;SDS011;32362;49.986;8.026;2022-11-14T20:22:29;16.02;;;9.73;;
46633;SDS011;32362;49.986;8.026;2022-11-14T20:49:28;20.60;;;11.33;;
46633;SDS011;32362;49.986;8.026;2022-11-14T21:16:32;19.08;;;11.30;;
46633;SDS011;32362;49.986;8.026;2022-11-14T21:43:33;24.98;;;13.38;;
46633;SDS011;32362;49.986;8.026;2022-11-14T22:10:32;22.90;;;11.60;;
46633;SDS011;32362;49.986;8.026;2022-11-14T22:37:31;18.10;;;10.80;;
46633;SDS011;32362;49.986;8.026;2022-11-14T23:04:31;21.48;;;11.20;;
46633;SDS011;32362;49.986;8.026;2022-11-14T23:31:29;20.23;;;12.30;;
46633;SDS011;32362;49.986;8.026;2022-11-14T23:58:29;18.30;;;12.00;;
